ADDS METAR Data INFO
IDs: Format: Raw Decoded Include TAF

Data at: 0350 UTC 18 Oct 2017

PAQH 180319Z AUTO 34012KT 10SM FEW026 00/M03 A2950 RMK AO2 PWINO FZRANO
PAQH 180256Z AUTO 35013KT 10SM BKN024 01/M03 A2949 RMK AO2 PK WND 33026/0210 SLP987 T00061033 53021 PWINO FZRANO
PAQH 180233Z AUTO 34015KT 10SM BKN024 01/M03 A2948 RMK AO2 PK WND 33026/0210 PWINO FZRANO
PAQH 180226Z AUTO 35016G23KT 10SM SCT024 01/M03 A2948 RMK AO2 PK WND 33026/0210 PWINO FZRANO
PAQH 180215Z AUTO 35017G26KT 10SM BKN024 02/M03 A2947 RMK AO2 PK WND 33026/0210 PWINO FZRANO
PAQH 180156Z AUTO 34018G22KT 10SM SCT024 02/M03 A2947 RMK AO2 PK WND 34027/0118 SLP978 T00171028 PWINO FZRANO
PAQH 180056Z AUTO 34021KT 10SM CLR 02/M03 A2944 RMK AO2 SLP971 T00221028 PWINO FZRANO
PAQH 172356Z AUTO 34022G26KT 10SM CLR 02/M03 A2943 RMK AO2 PK WND 34026/2356 SLP966 60002 T00221028 10022 21028 53011 PWINO FZRANO
PAQH 172256Z AUTO 35017KT 10SM CLR 02/M02 A2942 RMK AO2 SLP961 T00171022 PWINO FZRANO
PAQH 172156Z AUTO 35016KT 10SM CLR 01/M02 A2941 RMK AO2 SLP958 T00111022 PWINO FZRANO
PAQH 172056Z AUTO 35012KT 10SM CLR 01/M03 A2940 RMK AO2 SLP955 60002 T00061028 53013 PWINO FZRANO
PAQH 171956Z AUTO 35013KT 10SM CLR M01/M03 A2938 RMK AO2 SLP949 T10111028 PWINO FZRANO
PAQH 171856Z AUTO 35010KT 10SM CLR M02/M03 A2937 RMK AO2 SLP945 P0002 T10221033 PWINO FZRANO
PAQH 171756Z AUTO 34009KT 10SM CLR M03/M04 A2936 RMK AO2 SLP942 T10281039 10000 21028 55004 PWINO FZRANO $
PAQH 171556Z AUTO 01008KT 10SM CLR M02/M03 A2936 RMK AO2 SLP942 T10221033 PWINO FZRANO $
PAQH 171456Z AUTO 01006KT 10SM FEW049 M02/M03 A2937 RMK AO2 SLP946 T10221033 56018 PWINO FZRANO $
PAQH 171356Z AUTO 01008KT 10SM CLR M01/M03 A2938 RMK AO2 SLP950 T10111028 PWINO FZRANO $
PAQH 171256Z AUTO 02008KT 10SM CLR M01/M02 A2940 RMK AO2 SLP956 T10061022 PWINO FZRANO $
PAQH 171156Z AUTO 02008KT 10SM CLR M01/M02 A2942 RMK AO2 SLP964 70002 T10111022 10006 21011 58025 PWINO FZRANO $
PAQH 170956Z AUTO 04009KT 10SM FEW050 M01/M01 A2947 RMK AO2 SLP981 T10061011 PWINO FZRANO $
PAQH 170856Z AUTO 05008KT 10SM FEW045 00/M01 A2950 RMK AO2 SLP989 T00001006 400561011 56023 PWINO FZRANO $
PAQH 170756Z AUTO 04007KT 10SM FEW031 00/M01 A2952 RMK AO2 SLP996 T00001006 PWINO FZRANO $
PAQH 170656Z AUTO 05006KT 10SM CLR 00/M01 A2954 RMK AO2 SLP003 T00001006 PWINO FZRANO $
PAQH 170556Z AUTO 07006KT 10SM CLR 01/00 A2956 RMK AO2 SLP012 T00060000 10056 20006 58020 PWINO FZRANO $
PAQH 170456Z AUTO 07007KT 10SM FEW028 SCT034 02/01 A2959 RMK AO2 SLP020 T00170011 PWINO FZRANO $
PAQH 170356Z AUTO 05003KT 10SM BKN032 OVC038 03/02 A2961 RMK AO2 SLP026 T00330017 PWINO $
PAQH 170256Z AUTO 00000KT 10SM CLR 04/02 A2962 RMK AO2 SLP032 T00440017 56019 PWINO $
PAQH 170156Z AUTO 20005KT 10SM BKN065 BKN090 05/02 A2964 RMK AO2 SLP039 T00500017 PWINO $
PAQH 170056Z AUTO 18005KT 10SM CLR 05/02 A2966 RMK AO2 SLP043 T00500017 PWINO $
PAQH 162356Z AUTO 16004KT 10SM FEW070 BKN100 04/02 A2968 RMK AO2 SLP051 60002 T00440022 10050 20006 58007 PWINO $
PAQH 162256Z AUTO 11008KT 10SM FEW032 OVC050 04/03 A2969 RMK AO2 SLP054 P0002 T00440033 PWINO $
PAQH 162231Z AUTO 15008KT 10SM FEW011 BKN035 OVC060 02/01 A2970 RMK AO2 P0002 PWINO FZRANO $
PAQH 162222Z AUTO 16009KT 10SM BKN017 BKN044 OVC065 02/01 A2970 RMK AO2 P0001 PWINO FZRANO $
PAQH 162156Z AUTO 17011KT 10SM FEW028 BKN070 OVC110 03/02 A2970 RMK AO2 SLP057 T00280017 PWINO $
PAQH 162135Z AUTO 13006KT 10SM OVC028 03/02 A2970 RMK AO2 PWINO $
PAQH 162056Z AUTO 12005KT 10SM SCT030 BKN120 02/02 A2970 RMK AO2 SLP058 T00220017 51004 PWINO FZRANO $
PAQH 161956Z AUTO 09005KT 10SM SCT022 BKN039 OVC110 01/01 A2970 RMK AO2 SLP058 T00110006 PWINO FZRANO $
PAQH 161932Z AUTO 09006KT 10SM BKN022 OVC046 01/00 A2970 RMK AO2 PWINO FZRANO $
PAQH 161856Z AUTO 07007KT 10SM CLR 01/00 A2970 RMK AO2 SLP056 T00060000 PWINO FZRANO $
PAQH 161837Z AUTO 09006KT 10SM SCT022 SCT120 01/00 A2969 RMK AO2 PWINO FZRANO $
PAQH 161756Z AUTO 08003KT 10SM BKN019 BKN025 OVC031 02/01 A2969 RMK AO2 SLP055 T00170006 10028 20006 50002 PWINO FZRANO $
PAQH 161752Z AUTO VRB03KT 10SM SCT019 BKN024 OVC031 01/01 A2969 RMK AO2 PWINO FZRANO $
PAQH 161745Z AUTO 08004KT 10SM SCT022 BKN031 OVC046 01/01 A2969 RMK AO2 PWINO FZRANO $
PAQH 161714Z AUTO 09004KT 10SM BKN024 OVC033 01/01 A2969 RMK AO2 PWINO FZRANO $
PAQH 161656Z AUTO 07004KT 10SM FEW024 BKN035 02/01 A2969 RMK AO2 SLP055 T00170006 PWINO FZRANO $
PAQH 161647Z AUTO 08004KT 10SM SCT024 SCT030 BKN035 02/01 A2969 RMK AO2 PWINO FZRANO $
PAQH 161618Z AUTO 06003KT 10SM BKN022 BKN033 01/00 A2969 RMK AO2 PWINO FZRANO $
PAQH 161556Z AUTO 12006KT 10SM FEW022 02/00 A2968 RMK AO2 SLP052 T00170000 PWINO FZRANO $